Time;durP1;ratioP1;P1;durP2;ratioP2;P2;SDS_P1;SDS_P2;PMS_P1;PMS_P2;Temp;Humidity;BMP_temperature;BMP_pressure;BME280_temperature;BME280_humidity;BME280_pressure;Samples;Min_cycle;Max_cycle;Signal;HPM_P1;HPM_P2
2022/09/25 00:01:29;;;;;;;1999.90;999.90;;;7.80;99.90;;;;;;5068221;29;20029;-82
2022/09/25 00:04:01;;;;;;;1999.90;999.90;;;7.60;99.90;;;;;;5068154;29;20036;-81
2022/09/25 00:06:32;;;;;;;1999.90;999.90;;;7.70;99.90;;;;;;5068260;29;20048;-82
2022/09/25 00:09:03;;;;;;;1999.90;999.90;;;7.80;99.90;;;;;;5068095;29;20037;-80
2022/09/25 00:11:34;;;;;;;1999.90;999.90;;;7.50;99.90;;;;;;5068016;29;20040;-81
2022/09/25 00:14:05;;;;;;;1999.90;999.90;;;7.40;99.90;;;;;;5067956;29;20084;-81
2022/09/25 00:16:36;;;;;;;1999.90;999.90;;;7.60;99.90;;;;;;5068063;29;20033;-81
2022/09/25 00:21:59;;;;;;;1999.90;999.90;;;7.60;99.90;;;;;;5067486;29;20140;-82
2022/09/25 00:24:31;;;;;;;1999.90;999.90;;;7.30;99.90;;;;;;5067878;29;20111;-82
2022/09/25 00:27:01;;;;;;;1999.90;999.90;;;7.50;99.90;;;;;;5067922;29;20017;-81
2022/09/25 00:29:32;;;;;;;1999.90;999.90;;;7.40;99.90;;;;;;5068028;29;20043;-81
2022/09/25 00:32:09;;;;;;;1999.90;999.90;;;7.60;99.90;;;;;;5067761;29;20032;-78
2022/09/25 00:34:40;;;;;;;1999.90;999.90;;;7.40;99.90;;;;;;5067927;29;20099;-83
2022/09/25 00:37:11;;;;;;;1999.90;999.90;;;7.40;99.90;;;;;;5067746;29;20020;-81
2022/09/25 00:39:42;;;;;;;1999.90;999.90;;;7.50;99.90;;;;;;5068043;29;20037;-80
2022/09/25 00:42:13;;;;;;;1999.90;999.90;;;7.40;99.90;;;;;;5067636;29;20032;-80
2022/09/25 00:45:03;;;;;;;1999.90;999.90;;;7.50;99.90;;;;;;5067533;29;20024;-81
2022/09/25 00:48:10;;;;;;;1999.90;999.90;;;7.20;99.90;;;;;;5067736;29;20025;-81
2022/09/25 00:50:56;;;;;;;1999.90;999.90;;;7.60;99.90;;;;;;5067685;29;20033;-81
2022/09/25 00:53:33;;;;;;;1999.90;999.90;;;7.30;99.90;;;;;;5066294;29;20028;-81
2022/09/25 00:56:05;;;;;;;1999.90;999.90;;;7.10;99.90;;;;;;5067641;29;20032;-81
2022/09/25 00:58:37;;;;;;;1999.90;999.90;;;7.40;99.90;;;;;;5067720;29;20035;-81
2022/09/25 01:01:09;;;;;;;1999.90;999.90;;;7.20;99.90;;;;;;5067834;29;20036;-80
2022/09/25 01:03:41;;;;;;;1999.90;999.90;;;7.20;99.90;;;;;;5067286;29;20040;-78
2022/09/25 01:06:14;;;;;;;1999.90;999.90;;;7.10;99.90;;;;;;5065943;29;20802;-81
2022/09/25 01:08:45;;;;;;;1999.90;999.90;;;7.30;99.90;;;;;;5066983;29;20039;-80
2022/09/25 01:11:16;;;;;;;1999.90;999.90;;;7.20;99.90;;;;;;5067000;29;20032;-80
2022/09/25 01:13:47;;;;;;;1999.90;999.90;;;7.20;99.90;;;;;;5066945;29;20469;-80
2022/09/25 01:16:32;;;;;;;1999.90;999.90;;;7.40;99.90;;;;;;5066850;29;20393;-81
2022/09/25 01:19:26;;;;;;;1999.90;999.90;;;7.20;99.90;;;;;;5066901;29;20041;-80
2022/09/25 01:22:04;;;;;;;1999.90;999.90;;;7.30;99.90;;;;;;5048234;29;20067;-81
2022/09/25 01:24:58;;;;;;;1999.90;999.90;;;7.30;99.90;;;;;;5066697;29;20036;-81
2022/09/25 01:28:06;;;;;;;1999.90;999.90;;;7.10;99.90;;;;;;5066614;29;20392;-81
2022/09/25 01:30:42;;;;;;;1999.90;999.90;;;7.00;99.90;;;;;;5066529;29;20033;-81
2022/09/25 01:33:18;;;;;;;1999.90;999.90;;;7.10;99.90;;;;;;5066402;29;20025;-80
2022/09/25 01:36:01;;;;;;;1999.90;999.90;;;7.10;99.90;;;;;;5066520;29;20362;-81
2022/09/25 01:38:33;;;;;;;1999.90;999.90;;;7.10;99.90;;;;;;5066431;29;20096;-78
2022/09/25 01:41:28;;;;;;;1999.90;999.90;;;7.00;99.90;;;;;;5066326;29;20017;-81
2022/09/25 01:44:05;;;;;;;1999.90;999.90;;;7.10;99.90;;;;;;5066426;29;20039;-81
2022/09/25 01:46:43;;;;;;;1999.90;999.90;;;7.10;99.90;;;;;;5066366;29;20029;-81
2022/09/25 01:49:25;;;;;;;1999.90;999.90;;;7.00;99.90;;;;;;5066377;29;20037;-80
2022/09/25 01:51:58;;;;;;;1999.90;999.90;;;7.00;99.90;;;;;;5064915;29;20477;-80
2022/09/25 01:54:50;;;;;;;1999.90;999.90;;;6.90;99.90;;;;;;5065921;29;20032;-80
2022/09/25 01:57:50;;;;;;;1999.90;999.90;;;7.10;99.90;;;;;;5066203;29;20430;-80
2022/09/25 02:00:22;;;;;;;1999.90;999.90;;;7.10;99.90;;;;;;5063539;29;20036;-73
2022/09/25 02:03:05;;;;;;;1999.90;999.90;;;7.00;99.90;;;;;;5066010;29;20051;-80
2022/09/25 02:05:49;;;;;;;1999.90;999.90;;;6.90;99.90;;;;;;5065751;29;20048;-80
2022/09/25 02:08:28;;;;;;;1999.90;999.90;;;7.00;99.90;;;;;;5066069;29;20037;-79
2022/09/25 02:11:01;;;;;;;1999.90;999.90;;;7.00;99.90;;;;;;5066065;29;20028;-81
2022/09/25 02:13:45;;;;;;;1999.90;999.90;;;7.00;99.90;;;;;;5064650;29;20028;-80
2022/09/25 02:16:21;;;;;;;1999.90;999.90;;;6.90;99.90;;;;;;5065965;29;20040;-81
2022/09/25 02:22:10;;;;;;;1999.90;999.90;;;7.00;99.90;;;;;;5066003;29;20508;-82
2022/09/25 02:24:53;;;;;;;1999.90;999.90;;;6.70;99.90;;;;;;5065637;29;20438;-80
2022/09/25 02:27:26;;;;;;;1999.90;999.90;;;6.60;99.90;;;;;;5065724;29;20441;-81
2022/09/25 02:29:57;;;;;;;1999.90;999.90;;;6.80;99.90;;;;;;5065724;29;20453;-81
2022/09/25 02:32:30;;;;;;;1999.90;999.90;;;6.90;99.90;;;;;;5065843;29;20035;-79
2022/09/25 02:35:01;;;;;;;1999.90;999.90;;;7.10;99.90;;;;;;5065444;29;20024;-81
2022/09/25 02:37:31;;;;;;;1999.90;999.90;;;7.30;99.90;;;;;;5065642;29;20092;-81
2022/09/25 02:40:03;;;;;;;1999.90;999.90;;;7.30;99.90;;;;;;5065445;29;20096;-79
2022/09/25 02:42:47;;;;;;;1999.90;999.90;;;6.90;99.90;;;;;;5065348;29;20044;-81
2022/09/25 02:45:37;;;;;;;1999.90;999.90;;;7.00;99.90;;;;;;5065512;29;20028;-80
2022/09/25 02:48:13;;;;;;;;;;;6.60;99.90;;;;;;5064582;29;20072;-80
2022/09/25 02:51:01;;;;;;;1999.90;999.90;;;6.80;99.90;;;;;;5065421;29;20283;-78
2022/09/25 02:53:47;;;;;;;1999.90;999.90;;;6.70;99.90;;;;;;5065643;29;20056;-80
2022/09/25 02:56:30;;;;;;;1999.90;999.90;;;6.60;99.90;;;;;;5065347;29;20052;-80
2022/09/25 02:59:07;;;;;;;1999.90;999.90;;;6.70;99.90;;;;;;5065395;29;20017;-81
2022/09/25 03:01:41;;;;;;;1999.90;999.90;;;7.00;99.90;;;;;;5065407;29;20135;-81
2022/09/25 03:04:15;;;;;;;1999.90;999.90;;;7.00;99.90;;;;;;5065076;29;20087;-80
2022/09/25 03:06:46;;;;;;;1999.90;999.90;;;6.80;99.90;;;;;;5065326;29;20381;-81
2022/09/25 03:09:20;;;;;;;1999.90;999.90;;;6.80;99.90;;;;;;5065395;29;20036;-81
2022/09/25 03:11:51;;;;;;;1999.90;999.90;;;6.90;99.90;;;;;;5065457;29;20113;-82
2022/09/25 03:14:22;;;;;;;1999.90;999.90;;;6.60;99.90;;;;;;5065198;29;20043;-79
2022/09/25 03:16:56;;;;;;;1999.90;999.90;;;6.60;99.90;;;;;;5065127;29;20552;-77
2022/09/25 03:19:28;;;;;;;1999.90;999.90;;;6.80;99.90;;;;;;5065128;29;20032;-81
2022/09/25 03:21:59;;;;;;;1999.90;999.90;;;6.80;99.90;;;;;;5063725;29;20044;-81
2022/09/25 03:24:30;;;;;;;1999.90;999.90;;;6.60;99.90;;;;;;5065055;29;20107;-76
2022/09/25 03:27:01;;;;;;;1999.90;999.90;;;6.60;99.90;;;;;;5065175;29;20136;-81
2022/09/25 03:29:32;;;;;;;1999.90;999.90;;;6.70;99.90;;;;;;5065157;29;20099;-81
2022/09/25 03:32:03;;;;;;;1999.90;999.90;;;6.40;99.90;;;;;;5065022;29;20047;-81
2022/09/25 03:34:34;;;;;;;1999.90;999.90;;;6.50;99.90;;;;;;5065055;29;20029;-81
2022/09/25 03:37:05;;;;;;;1999.90;999.90;;;6.40;99.90;;;;;;5064842;29;20020;-81
2022/09/25 03:39:35;;;;;;;1999.90;999.90;;;6.50;99.90;;;;;;5065017;29;20481;-81
2022/09/25 03:42:06;;;;;;;1999.90;999.90;;;6.40;99.90;;;;;;5064818;29;20092;-81
2022/09/25 03:44:37;;;;;;;1999.90;999.90;;;6.60;99.90;;;;;;5064901;29;20025;-81
2022/09/25 03:47:08;;;;;;;1999.90;999.90;;;6.60;99.90;;;;;;5064938;29;20064;-80
2022/09/25 03:49:39;;;;;;;1999.90;999.90;;;6.70;99.90;;;;;;5065000;29;20060;-80
2022/09/25 03:52:11;;;;;;;1999.90;999.90;;;6.60;99.90;;;;;;5064898;29;20028;-81
2022/09/25 03:54:42;;;;;;;1999.90;999.90;;;6.60;99.90;;;;;;5063669;29;20564;-80
2022/09/25 03:57:13;;;;;;;1999.90;999.90;;;6.50;99.90;;;;;;5068069;29;20428;-81
2022/09/25 03:59:44;;;;;;;1999.90;999.90;;;6.40;99.90;;;;;;5068828;29;20063;-80
2022/09/25 04:02:15;;;;;;;1999.90;999.90;;;6.60;99.90;;;;;;5067194;29;20497;-81
2022/09/25 04:04:46;;;;;;;1999.90;999.90;;;6.50;99.90;;;;;;5068152;29;20135;-81
2022/09/25 04:07:17;;;;;;;1999.90;999.90;;;6.60;99.90;;;;;;5066884;29;20035;-81
2022/09/25 04:09:48;;;;;;;1999.90;999.90;;;6.60;99.90;;;;;;5068120;29;20536;-81
2022/09/25 04:12:20;;;;;;;1999.90;999.90;;;6.60;99.90;;;;;;5068313;29;20381;-80
2022/09/25 04:14:50;;;;;;;1999.90;999.90;;;6.30;99.90;;;;;;5068317;29;20448;-81
2022/09/25 04:17:21;;;;;;;1999.90;999.90;;;6.40;99.90;;;;;;5068093;29;20100;-81
2022/09/25 04:19:52;;;;;;;1999.90;999.90;;;6.70;99.90;;;;;;5067865;29;20036;-80
2022/09/25 04:22:23;;;;;;;1999.90;999.90;;;6.60;99.90;;;;;;5067805;29;20044;-80
2022/09/25 04:24:54;;;;;;;1999.90;999.90;;;6.50;99.90;;;;;;5068114;29;20036;-81
2022/09/25 04:27:25;;;;;;;1999.90;999.90;;;6.70;99.90;;;;;;5067884;29;20523;-81
2022/09/25 04:29:56;;;;;;;1999.90;999.90;;;6.60;99.90;;;;;;5067687;29;20028;-81
2022/09/25 04:35:33;;;;;;;1999.90;999.90;;;6.70;99.90;;;;;;5026828;29;20069;-81
2022/09/25 04:38:04;;;;;;;1999.90;999.90;;;6.50;99.90;;;;;;5060823;29;20559;-74
2022/09/25 04:40:36;;;;;;;1999.90;999.90;;;6.60;99.90;;;;;;5067628;29;20489;-76
2022/09/25 04:43:07;;;;;;;1999.90;999.90;;;6.80;99.90;;;;;;5067341;29;20560;-81
2022/09/25 04:45:37;;;;;;;1999.90;999.90;;;6.90;99.90;;;;;;5067467;29;20104;-81
2022/09/25 04:48:08;;;;;;;1999.90;999.90;;;6.80;99.90;;;;;;5067389;29;20421;-80
2022/09/25 04:50:45;;;;;;;1999.90;999.90;;;6.80;99.90;;;;;;5067393;29;20033;-81
2022/09/25 04:53:17;;;;;;;1999.90;999.90;;;7.00;99.90;;;;;;5067417;29;20021;-81
2022/09/25 04:55:48;;;;;;;1999.90;999.90;;;6.90;99.90;;;;;;5067312;29;20091;-80
2022/09/25 04:58:19;;;;;;;1999.90;999.90;;;7.10;99.90;;;;;;5067347;29;20017;-80
2022/09/25 05:00:50;;;;;;;1999.90;999.90;;;7.30;99.90;;;;;;5067132;29;20149;-78
2022/09/25 05:03:21;;;;;;;1999.90;999.90;;;7.60;99.90;;;;;;5066996;29;20043;-81
2022/09/25 05:05:52;;;;;;;1999.90;999.90;;;7.80;99.90;;;;;;5066887;29;20060;-81
2022/09/25 05:08:23;;;;;;;1999.90;999.90;;;8.00;99.90;;;;;;5067445;29;20396;-79
2022/09/25 05:10:54;;;;;;;1999.90;999.90;;;8.10;99.90;;;;;;5067209;29;20028;-81
2022/09/25 05:13:24;;;;;;;1999.90;999.90;;;8.40;99.90;;;;;;5066997;29;20016;-81
2022/09/25 05:15:55;;;;;;;1999.90;999.90;;;8.80;99.90;;;;;;5065503;29;20056;-82
2022/09/25 05:18:26;;;;;;;1999.90;999.90;;;8.80;99.90;;;;;;5066767;29;20027;-81
2022/09/25 05:20:57;;;;;;;1999.90;999.90;;;8.60;99.90;;;;;;5066751;29;21083;-80
2022/09/25 05:23:27;;;;;;;1999.90;999.90;;;8.80;99.90;;;;;;5066550;29;20044;-81
2022/09/25 05:26:00;;;;;;;1999.90;999.90;;;9.20;99.90;;;;;;5066698;29;20489;-80
2022/09/25 05:28:32;;;;;;;1999.90;999.90;;;9.10;99.90;;;;;;5066687;29;20016;-82
2022/09/25 05:31:04;;;;;;;1999.90;999.90;;;9.60;99.90;;;;;;5066497;29;20040;-80
2022/09/25 05:33:35;;;;;;;1999.90;999.90;;;9.70;99.90;;;;;;5066695;29;20041;-81
2022/09/25 05:36:06;;;;;;;1999.90;999.90;;;9.60;99.90;;;;;;5066441;29;20068;-80
2022/09/25 05:38:39;;;;;;;1999.90;999.90;;;9.90;99.90;;;;;;5066614;29;20441;-81
2022/09/25 05:41:10;;;;;;;1999.90;999.90;;;10.40;99.90;;;;;;5066741;29;20473;-81
2022/09/25 05:43:43;;;;;;;1999.90;999.90;;;10.50;99.90;;;;;;5066272;29;20040;-80
2022/09/25 05:46:15;;;;;;;1999.90;999.90;;;10.60;99.90;;;;;;5066387;29;20072;-80
2022/09/25 05:48:45;;;;;;;1999.90;999.90;;;11.00;99.90;;;;;;5066288;29;20036;-79
2022/09/25 05:51:16;;;;;;;1999.90;999.90;;;10.90;99.90;;;;;;5066211;29;20037;-80
2022/09/25 05:53:47;;;;;;;1999.90;999.90;;;11.10;99.90;;;;;;5066124;29;20417;-80
2022/09/25 05:56:19;;;;;;;1999.90;999.90;;;11.30;99.90;;;;;;5066184;29;20385;-81
2022/09/25 05:58:51;;;;;;;1999.90;999.90;;;11.50;99.90;;;;;;5066090;29;20052;-81
2022/09/25 06:01:22;;;;;;;1999.90;999.90;;;11.60;99.90;;;;;;5064751;29;20494;-80
2022/09/25 06:03:53;;;;;;;1999.90;999.90;;;11.90;99.90;;;;;;5066019;29;20041;-80
2022/09/25 06:06:24;;;;;;;1999.90;999.90;;;12.10;99.90;;;;;;5065734;29;20446;-81
2022/09/25 06:08:55;;;;;;;1999.90;999.90;;;12.40;99.90;;;;;;5065775;29;20029;-81
2022/09/25 06:11:25;;;;;;;1999.90;999.90;;;12.50;99.90;;;;;;5066135;29;20103;-81
2022/09/25 06:13:56;;;;;;;1999.90;999.90;;;12.80;99.90;;;;;;5066187;29;20021;-80
2022/09/25 06:16:27;;;;;;;1999.90;999.90;;;13.00;99.90;;;;;;5070301;29;20032;-74
2022/09/25 06:18:58;;;;;;;1999.90;999.90;;;13.10;99.90;;;;;;5073582;29;20103;-76
2022/09/25 06:21:29;;;;;;;1999.90;999.90;;;13.40;99.90;;;;;;5068196;29;20032;-81
2022/09/25 06:24:00;;;;;;;1999.90;999.90;;;13.60;99.90;;;;;;5076263;29;20032;-83
2022/09/25 06:26:33;;;;;;;1999.90;999.90;;;13.70;99.90;;;;;;5065706;29;20088;-80
2022/09/25 06:29:04;;;;;;;1999.90;999.90;;;14.00;99.90;;;;;;5065607;29;20041;-80
2022/09/25 06:31:35;;;;;;;1999.90;999.90;;;14.40;99.90;;;;;;5064407;29;20024;-79
2022/09/25 06:34:08;;;;;;;1999.90;999.90;;;14.60;99.90;;;;;;5065533;29;20033;-80
2022/09/25 06:36:39;;;;;;;1999.90;999.90;;;15.00;99.90;;;;;;5065545;29;20116;-79
2022/09/25 06:39:09;;;;;;;1999.90;999.90;;;15.10;99.90;;;;;;5076048;29;20469;-80
2022/09/25 06:41:41;;;;;;;1999.90;999.90;;;15.40;99.90;;;;;;5071130;29;20056;-77
2022/09/25 06:44:11;;;;;;;1999.90;999.90;;;15.60;99.90;;;;;;5084980;29;20099;-81
2022/09/25 06:46:43;;;;;;;1999.90;999.90;;;15.70;99.90;;;;;;5084995;29;20075;-79
2022/09/25 06:49:14;;;;;;;1999.90;999.90;;;16.20;99.90;;;;;;5084795;29;20028;-80
2022/09/25 06:51:45;;;;;;;1999.90;999.90;;;16.30;99.90;;;;;;5083807;29;20031;-80
2022/09/25 06:54:16;;;;;;;1999.90;999.90;;;16.40;99.90;;;;;;5084791;29;20036;-81
2022/09/25 06:56:48;;;;;;;1999.90;999.90;;;16.60;99.90;;;;;;5085226;29;20028;-80
2022/09/25 06:59:19;;;;;;;1999.90;999.90;;;17.00;99.90;;;;;;5084858;29;20035;-76
2022/09/25 07:01:50;;;;;;;1999.90;999.90;;;17.00;99.90;;;;;;5075873;29;20024;-80
2022/09/25 07:04:21;;;;;;;1999.90;999.90;;;17.30;99.90;;;;;;5084410;29;20044;-79
2022/09/25 07:06:55;;;;;;;1999.90;999.90;;;17.40;99.90;;;;;;5084371;29;20028;-80
2022/09/25 07:09:26;;;;;;;1999.90;999.90;;;17.50;99.90;;;;;;5084713;29;20027;-79
2022/09/25 07:11:56;;;;;;;1999.90;999.90;;;18.00;99.90;;;;;;5083244;29;20484;-80
2022/09/25 07:14:27;;;;;;;1999.90;999.90;;;18.10;99.90;;;;;;5084760;29;20035;-80
2022/09/25 07:16:58;;;;;;;1999.90;999.90;;;18.50;99.90;;;;;;5085024;29;20024;-79
2022/09/25 07:19:29;;;;;;;1999.90;999.90;;;18.50;99.90;;;;;;5085178;29;20023;-76
2022/09/25 07:21:59;;;;;;;1999.90;999.90;;;18.90;99.90;;;;;;5084666;29;20047;-79
2022/09/25 07:24:31;;;;;;;1999.90;999.90;;;19.20;99.90;;;;;;5084625;29;20106;-79
2022/09/25 07:27:03;;;;;;;1999.90;999.90;;;19.60;99.90;;;;;;5083382;29;20488;-79
2022/09/25 07:29:34;;;;;;;1999.90;999.90;;;19.60;99.90;;;;;;5085699;29;20052;-79
2022/09/25 07:32:05;;;;;;;1999.90;999.90;;;19.70;99.90;;;;;;5086936;29;20059;-76
2022/09/25 07:34:36;;;;;;;1999.90;999.90;;;19.90;99.90;;;;;;5071316;29;20540;-80
2022/09/25 07:37:07;;;;;;;1999.90;999.90;;;20.00;99.90;;;;;;5088251;29;20031;-79
2022/09/25 07:39:38;;;;;;;1999.90;999.90;;;19.90;99.90;;;;;;5088337;29;20036;-79
2022/09/25 07:42:09;;;;;;;1999.90;999.90;;;20.10;99.90;;;;;;5071172;29;20433;-79
2022/09/25 07:44:40;;;;;;;1999.90;999.90;;;20.00;99.90;;;;;;5088256;29;20032;-80
2022/09/25 07:47:14;;;;;;;1999.90;999.90;;;20.40;99.90;;;;;;5087706;29;20020;-73
2022/09/25 07:49:45;;;;;;;1999.90;999.90;;;20.70;99.90;;;;;;5087958;29;20031;-80
2022/09/25 07:52:16;;;;;;;1999.90;999.90;;;20.50;99.90;;;;;;5087987;29;20028;-79
2022/09/25 07:54:47;;;;;;;1999.90;999.90;;;20.40;99.90;;;;;;5087592;29;20468;-80
2022/09/25 07:57:19;;;;;;;1999.90;999.90;;;20.50;99.90;;;;;;5083190;29;20520;-77
2022/09/25 07:59:50;;;;;;;1999.90;999.90;;;20.60;99.90;;;;;;5087874;29;20425;-74
2022/09/25 08:02:21;;;;;;;1999.90;999.90;;;20.60;99.90;;;;;;5081825;29;20032;-76
2022/09/25 08:04:53;;;;;;;1999.90;999.90;;;20.80;99.90;;;;;;5084773;29;20094;-79
2022/09/25 08:07:24;;;;;;;1999.90;999.90;;;20.60;99.90;;;;;;5087771;29;20047;-80
2022/09/25 08:09:55;;;;;;;1999.90;999.90;;;20.90;99.90;;;;;;5087713;29;20123;-80
2022/09/25 08:12:26;;;;;;;1999.90;999.90;;;20.90;99.90;;;;;;5087697;29;20102;-79
2022/09/25 08:14:57;;;;;;;1999.90;999.90;;;20.90;99.90;;;;;;5087862;29;20381;-75
2022/09/25 08:17:30;;;;;;;1999.90;999.90;;;21.10;99.90;;;;;;5087658;29;20028;-78
2022/09/25 08:20:01;;;;;;;1999.90;999.90;;;21.30;99.90;;;;;;5088009;29;20017;-76
2022/09/25 08:22:32;;;;;;;1999.90;999.90;;;21.30;99.90;;;;;;5086240;29;20028;-80
2022/09/25 08:25:03;;;;;;;1999.90;999.90;;;21.20;99.90;;;;;;5087770;29;20058;-79
2022/09/25 08:27:39;;;;;;;1999.90;999.90;;;21.80;99.90;;;;;;5087358;29;20473;-78
2022/09/25 08:30:12;;;;;;;1999.90;999.90;;;21.90;99.90;;;;;;5078093;29;20038;-78
2022/09/25 08:32:43;;;;;;;1999.90;999.90;;;22.10;99.90;;;;;;5058650;29;20035;-79
2022/09/25 08:35:14;;;;;;;1999.90;999.90;;;22.30;99.90;;;;;;5069598;29;20029;-80
2022/09/25 08:37:45;;;;;;;1999.90;999.90;;;22.40;99.90;;;;;;5077629;29;20071;-80
2022/09/25 08:40:18;;;;;;;1999.90;999.90;;;21.90;95.50;;;;;;5061759;29;20024;-79
2022/09/25 08:42:51;;;;;;;1999.90;999.90;;;22.00;97.00;;;;;;5068930;29;20115;-81
2022/09/25 08:51:21;;;;;;;1999.90;999.90;;;22.00;94.60;;;;;;5073069;29;20547;-74
2022/09/25 08:53:52;;;;;;;1999.90;999.90;;;22.20;92.90;;;;;;5069422;29;20037;-81
2022/09/25 08:56:24;;;;;;;1999.90;999.90;;;22.20;95.70;;;;;;5067187;29;20096;-79
2022/09/25 08:58:55;;;;;;;1999.90;999.90;;;21.90;91.00;;;;;;5067169;29;20051;-80
2022/09/25 09:01:52;;;;;;;1999.90;999.90;;;22.50;94.00;;;;;;5075763;29;20064;-80
2022/09/25 09:04:32;;;;;;;1999.90;999.90;;;23.20;94.60;;;;;;5086973;29;20036;-79
2022/09/25 09:07:14;;;;;;;1999.90;999.90;;;23.40;97.10;;;;;;5086856;29;20032;-80
2022/09/25 09:09:54;;;;;;;1999.90;999.90;;;22.70;94.40;;;;;;5086586;29;20024;-80
2022/09/25 09:12:34;;;;;;;;;;;22.40;91.90;;;;;;5085773;29;20071;-79
2022/09/25 09:15:35;;;;;;;1999.90;999.90;;;22.60;90.70;;;;;;5077571;29;19911;-81
2022/09/25 09:18:24;;;;;;;1999.90;999.90;;;22.90;92.20;;;;;;5086451;29;20028;-81
2022/09/25 09:20:57;;;;;;;1999.90;999.90;;;23.10;91.20;;;;;;5086800;29;20437;-80
2022/09/25 09:24:11;;;;;;;1999.90;999.90;;;23.40;94.60;;;;;;5084905;29;20135;-78
2022/09/25 09:27:03;;;;;;;1999.90;999.90;;;22.90;91.00;;;;;;5086150;29;20060;-81
2022/09/25 09:29:57;;;;;;;1999.90;999.90;;;23.20;88.20;;;;;;5086760;29;20629;-78
2022/09/25 09:32:43;;;;;;;1999.90;999.90;;;23.80;91.10;;;;;;5086364;29;20115;-79
2022/09/25 09:35:24;;;;;;;1999.90;999.90;;;23.70;87.00;;;;;;5086184;29;20067;-79
2022/09/25 09:38:27;;;;;;;1999.90;999.90;;;23.30;88.80;;;;;;5085956;29;20388;-79
2022/09/25 09:41:29;;;;;;;1999.90;999.90;;;23.10;87.60;;;;;;5085858;29;20176;-79
2022/09/25 09:44:11;;;;;;;1999.90;999.90;;;23.40;85.70;;;;;;5085740;29;20124;-80
2022/09/25 09:46:47;;;;;;;1999.90;999.90;;;23.80;89.10;;;;;;5085780;29;20499;-75
2022/09/25 09:49:46;;;;;;;1999.90;999.90;;;23.60;87.20;;;;;;5085797;29;20373;-76
2022/09/25 09:52:32;;;;;;;1999.90;999.90;;;23.40;84.60;;;;;;5085854;29;20031;-80
2022/09/25 09:55:06;;;;;;;1999.90;999.90;;;23.30;84.40;;;;;;5085535;29;20040;-79
2022/09/25 09:57:47;;;;;;;1999.90;999.90;;;24.00;87.40;;;;;;5085630;29;20055;-79
2022/09/25 10:00:21;;;;;;;1999.90;999.90;;;23.40;82.50;;;;;;5085709;29;20110;-79
2022/09/25 10:02:59;;;;;;;1999.90;999.90;;;24.20;87.90;;;;;;5084011;29;20032;-78
2022/09/25 10:05:38;;;;;;;1999.90;999.90;;;24.70;88.10;;;;;;5083917;29;20063;-76
2022/09/25 10:08:09;;;;;;;1999.90;999.90;;;23.80;79.60;;;;;;5085729;29;20036;-79
2022/09/25 10:10:46;;;;;;;1999.90;999.90;;;24.70;82.40;;;;;;5085523;29;20043;-75
2022/09/25 10:13:24;;;;;;;1999.90;999.90;;;24.70;82.90;;;;;;5085271;29;20028;-77
2022/09/25 10:16:20;;;;;;;1999.90;999.90;;;25.30;82.90;;;;;;5085703;29;20499;-79
2022/09/25 10:19:08;;;;;;;1999.90;999.90;;;25.20;81.10;;;;;;5080588;29;20051;-74
2022/09/25 10:21:45;;;;;;;1999.90;999.90;;;24.50;80.90;;;;;;5085176;29;20083;-78
2022/09/25 10:24:50;;;;;;;1999.90;999.90;;;24.60;81.60;;;;;;5085196;29;20043;-80
2022/09/25 10:27:25;;;;;;;1999.90;999.90;;;24.50;77.30;;;;;;5064046;29;20131;-78
2022/09/25 10:30:08;;;;;;;1999.90;999.90;;;25.20;83.10;;;;;;5085120;29;20409;-79
2022/09/25 10:32:56;;;;;;;1999.90;999.90;;;24.70;78.00;;;;;;5079241;29;20123;-78
2022/09/25 10:35:44;;;;;;;1999.90;999.90;;;24.70;79.80;;;;;;5084549;29;20103;-77
2022/09/25 10:38:46;;;;;;;1999.90;999.90;;;24.70;74.90;;;;;;5068572;29;20032;-79
2022/09/25 10:41:19;;;;;;;1999.90;999.90;;;24.80;74.80;;;;;;5085331;29;20028;-79
2022/09/25 10:43:52;;;;;;;1999.90;999.90;;;24.40;80.20;;;;;;5085048;29;20043;-79
2022/09/25 10:52:21;;;;;;;1999.90;999.90;;;25.20;86.90;;;;;;5069839;29;20088;-79
2022/09/25 10:55:13;;;;;;;1999.90;999.90;;;25.90;77.40;;;;;;5065731;29;20033;-77
2022/09/25 10:57:46;;;;;;;1999.90;999.90;;;24.40;74.20;;;;;;5065692;29;20120;-78
2022/09/25 11:00:23;;;;;;;1999.90;999.90;;;25.50;79.00;;;;;;5065435;29;20393;-78
2022/09/25 11:03:00;;;;;;;1999.90;999.90;;;25.60;78.90;;;;;;5065235;29;20041;-78
2022/09/25 11:05:37;;;;;;;1999.90;999.90;;;26.10;79.60;;;;;;5067722;29;20053;-80
2022/09/25 11:08:08;;;;;;;1999.90;999.90;;;25.80;83.30;;;;;;5069293;29;20038;-78
2022/09/25 11:10:51;;;;;;;1999.90;999.90;;;25.80;85.30;;;;;;5069184;29;20480;-79
2022/09/25 11:13:27;;;;;;;1999.90;999.90;;;25.70;85.50;;;;;;5069394;29;20494;-79
2022/09/25 11:16:00;;;;;;;1999.90;999.90;;;25.80;86.90;;;;;;5069232;29;20110;-79
2022/09/25 11:18:37;;;;;;;1999.90;999.90;;;25.80;85.50;;;;;;5052346;29;20510;-79
2022/09/25 11:21:27;;;;;;;1999.90;999.90;;;25.90;86.00;;;;;;5069068;29;20032;-79
2022/09/25 11:24:24;;;;;;;1999.90;999.90;;;25.90;89.60;;;;;;5068872;29;20040;-78
2022/09/25 11:27:15;;;;;;;1999.90;999.90;;;25.80;88.00;;;;;;5069013;29;20036;-79
2022/09/25 11:30:11;;;;;;;1999.90;999.90;;;25.90;87.40;;;;;;5068984;29;20036;-78
2022/09/25 11:32:42;;;;;;;1999.90;999.90;;;24.30;87.60;;;;;;5065620;29;20079;-79
2022/09/25 11:35:50;;;;;;;1999.90;999.90;;;25.30;91.10;;;;;;5068873;29;20063;-79
2022/09/25 11:41:49;;;;;;;1999.90;999.90;;;25.90;88.30;;;;;;5069044;29;20033;-74
2022/09/25 11:44:33;;;;;;;1999.90;999.90;;;25.40;90.50;;;;;;5068808;29;20056;-79
2022/09/25 11:47:20;;;;;;;1999.90;999.90;;;25.50;88.70;;;;;;5069128;29;20349;-76
2022/09/25 11:49:53;;;;;;;1999.90;999.90;;;25.60;87.70;;;;;;5068550;29;20029;-79
2022/09/25 11:52:50;;;;;;;1999.90;999.90;;;25.50;87.50;;;;;;5068530;29;20142;-79
2022/09/25 11:55:45;;;;;;;1999.90;999.90;;;25.90;86.10;;;;;;5060454;29;20080;-79
2022/09/25 11:58:52;;;;;;;1999.90;999.90;;;25.80;88.30;;;;;;5067096;29;20021;-80
2022/09/25 12:01:30;;;;;;;1999.90;999.90;;;26.10;87.70;;;;;;5068450;29;20460;-79
2022/09/25 12:04:26;;;;;;;1999.90;999.90;;;25.00;86.80;;;;;;5067131;29;20111;-80
2022/09/25 12:07:33;;;;;;;1999.90;999.90;;;25.40;88.80;;;;;;5068211;29;20131;-78
2022/09/25 12:10:18;;;;;;;1999.90;999.90;;;25.50;87.70;;;;;;5068186;29;20036;-78
2022/09/25 12:13:05;;;;;;;1999.90;999.90;;;25.30;87.20;;;;;;5068216;29;20110;-78
2022/09/25 12:15:51;;;;;;;1999.90;999.90;;;25.30;88.00;;;;;;5067437;29;20077;-79
2022/09/25 12:18:39;;;;;;;1999.90;999.90;;;25.40;88.80;;;;;;5067972;29;20472;-79
2022/09/25 12:21:18;;;;;;;1999.90;999.90;;;25.30;89.40;;;;;;5068116;29;20421;-78
2022/09/25 12:24:11;;;;;;;1999.90;999.90;;;25.30;89.60;;;;;;5067844;29;20472;-79
2022/09/25 12:27:08;;;;;;;1999.90;999.90;;;25.60;88.80;;;;;;5067962;29;20036;-78
2022/09/25 12:29:39;;;;;;;1999.90;999.90;;;25.80;87.90;;;;;;5067909;29;20032;-79
2022/09/25 12:32:22;;;;;;;1999.90;999.90;;;25.60;87.80;;;;;;5067754;29;20092;-78
2022/09/25 12:35:01;;;;;;;1999.90;999.90;;;24.90;87.30;;;;;;5066531;29;20579;-77
2022/09/25 12:37:42;;;;;;;1999.90;999.90;;;25.10;88.80;;;;;;5067847;29;20037;-79
2022/09/25 12:40:21;;;;;;;1999.90;999.90;;;25.10;87.60;;;;;;5067631;29;20557;-79
2022/09/25 12:43:22;;;;;;;1999.90;999.90;;;25.00;89.50;;;;;;5067630;29;20414;-79
2022/09/25 12:46:06;;;;;;;1999.90;999.90;;;25.30;88.60;;;;;;5067547;29;20029;-78
2022/09/25 12:49:22;;;;;;;1999.90;999.90;;;25.00;89.80;;;;;;5069020;29;20037;-79
2022/09/25 12:52:00;;;;;;;1999.90;999.90;;;24.80;89.30;;;;;;5050448;29;20112;-79
2022/09/25 12:54:58;;;;;;;1999.90;999.90;;;25.30;89.50;;;;;;5069728;29;20040;-79
2022/09/25 12:57:33;;;;;;;1999.90;999.90;;;25.50;88.60;;;;;;5067402;29;20075;-79
2022/09/25 13:00:27;;;;;;;1999.90;999.90;;;25.10;88.30;;;;;;5084449;29;20410;-80
2022/09/25 13:03:11;;;;;;;1999.90;999.90;;;25.10;88.50;;;;;;5083685;29;20446;-78
2022/09/25 13:06:00;;;;;;;1999.90;999.90;;;25.10;90.00;;;;;;5086655;29;20631;-78
2022/09/25 13:08:55;;;;;;;1999.90;999.90;;;25.30;89.70;;;;;;5086582;29;20035;-79
2022/09/25 13:11:44;;;;;;;1999.90;999.90;;;25.30;90.00;;;;;;5086580;29;20031;-80
2022/09/25 13:14:38;;;;;;;1999.90;999.90;;;25.10;88.50;;;;;;5086632;29;20035;-77
2022/09/25 13:17:12;;;;;;;1999.90;999.90;;;25.00;91.20;;;;;;5086672;29;20029;-79